createdAt,value
2023-06-12T00:00:13.701Z,101817.25
2023-06-12T00:02:41.687Z,101817.25
2023-06-12T00:05:11.053Z,101821.69
2023-06-12T00:07:38.752Z,101805.25
2023-06-12T00:10:07.269Z,101811.00
2023-06-12T00:12:36.420Z,101814.69
2023-06-12T00:15:04.237Z,101806.53
2023-06-12T00:17:34.981Z,101811.56
2023-06-12T00:20:02.732Z,101802.13
2023-06-12T00:22:30.808Z,101803.94
2023-06-12T00:24:58.618Z,101806.38
2023-06-12T00:27:26.290Z,101811.00
2023-06-12T00:29:55.365Z,101804.97
2023-06-12T00:32:23.035Z,101796.72
2023-06-12T00:34:50.718Z,101815.91
2023-06-12T00:37:19.308Z,101798.53
2023-06-12T00:39:47.479Z,101815.78
2023-06-12T00:42:15.184Z,101794.00
2023-06-12T00:44:42.830Z,101807.81
2023-06-12T00:47:13.131Z,101799.22
2023-06-12T00:49:41.194Z,101802.84
2023-06-12T00:52:12.866Z,101801.28
2023-06-12T00:54:41.249Z,101793.50
2023-06-12T00:57:09.360Z,101771.00
2023-06-12T00:59:37.682Z,101811.28
2023-06-12T01:02:07.271Z,101796.41
2023-06-12T01:04:38.206Z,101803.25
2023-06-12T01:07:12.432Z,101798.09
2023-06-12T01:09:48.751Z,101791.41
2023-06-12T01:12:17.728Z,101789.38
2023-06-12T01:14:47.488Z,101789.78
2023-06-12T01:17:15.333Z,101797.66
2023-06-12T01:19:44.796Z,101792.84
2023-06-12T01:22:17.699Z,101790.59
2023-06-12T01:25:14.628Z,101782.38
2023-06-12T01:27:57.297Z,101785.56
2023-06-12T01:30:43.232Z,101789.81
2023-06-12T01:33:18.330Z,101785.94
2023-06-12T01:35:49.040Z,101779.25
2023-06-12T01:38:21.940Z,101770.31
2023-06-12T01:40:50.537Z,101781.50
2023-06-12T01:43:18.259Z,101775.75
2023-06-12T01:45:46.192Z,101760.53
2023-06-12T01:48:17.659Z,101773.56
2023-06-12T01:50:45.426Z,101777.66
2023-06-12T01:53:14.424Z,101773.66
2023-06-12T01:55:42.545Z,101776.31
2023-06-12T01:58:10.802Z,101755.53
2023-06-12T02:00:38.480Z,101768.00
2023-06-12T02:03:07.725Z,101761.06
2023-06-12T02:05:36.794Z,101765.63
2023-06-12T02:08:04.650Z,101771.06
2023-06-12T02:10:32.298Z,101759.16
2023-06-12T02:12:59.984Z,101764.50
2023-06-12T02:15:29.466Z,101773.66
2023-06-12T02:17:57.519Z,101757.69
2023-06-12T02:20:25.248Z,101761.59
2023-06-12T02:22:54.297Z,101757.84
2023-06-12T02:25:22.189Z,101777.84
2023-06-12T02:27:49.813Z,101751.19
2023-06-12T02:30:17.522Z,101771.94
2023-06-12T02:32:45.185Z,101756.41
2023-06-12T02:35:12.837Z,101767.31
2023-06-12T02:37:40.575Z,101766.75
2023-06-12T02:40:11.326Z,101773.59
2023-06-12T02:42:39.206Z,101770.13
2023-06-12T02:45:08.061Z,101773.81
2023-06-12T02:47:35.879Z,101775.28
2023-06-12T02:50:03.710Z,101782.03
2023-06-12T02:52:31.645Z,101774.25
2023-06-12T02:54:59.299Z,101765.25
2023-06-12T02:57:28.305Z,101766.50
2023-06-12T02:59:55.987Z,101764.38
2023-06-12T03:02:23.705Z,101767.75
2023-06-12T03:04:51.488Z,101742.69
2023-06-12T03:07:19.759Z,101755.34
2023-06-12T03:09:47.829Z,101801.84
2023-06-12T03:12:15.652Z,101762.25
2023-06-12T03:14:45.460Z,101766.22
2023-06-12T03:17:13.135Z,101784.06
2023-06-12T03:19:40.779Z,101751.41
2023-06-12T03:22:08.462Z,101774.06
2023-06-12T03:24:38.376Z,101770.44
2023-06-12T03:27:07.152Z,101792.69
2023-06-12T03:29:34.887Z,101799.88
2023-06-12T03:32:04.155Z,101768.28
2023-06-12T03:34:32.931Z,101799.59
2023-06-12T03:37:00.695Z,101781.56
2023-06-12T03:39:28.431Z,101780.41
2023-06-12T03:41:58.113Z,101772.94
2023-06-12T03:44:25.976Z,101769.22
2023-06-12T03:46:53.724Z,101785.84
2023-06-12T03:49:24.259Z,101785.50
2023-06-12T03:51:52.058Z,101792.16
2023-06-12T03:54:20.677Z,101796.97
2023-06-12T03:56:49.326Z,101787.66
2023-06-12T03:59:17.295Z,101784.91
2023-06-12T04:01:45.007Z,101791.53
2023-06-12T04:04:12.851Z,101782.47
2023-06-12T04:06:42.523Z,101809.59
2023-06-12T04:09:13.715Z,101819.09
2023-06-12T04:11:41.532Z,101791.47
2023-06-12T04:14:09.871Z,101800.19
2023-06-12T04:16:37.835Z,101810.97
2023-06-12T04:19:05.717Z,101789.44
2023-06-12T04:21:34.391Z,101782.72
2023-06-12T04:24:04.784Z,101819.47
2023-06-12T04:26:33.043Z,101783.91
2023-06-12T04:29:03.541Z,101795.44
2023-06-12T04:31:31.517Z,101794.66
2023-06-12T04:33:59.996Z,101773.84
2023-06-12T04:36:28.292Z,101776.50
2023-06-12T04:38:58.013Z,101786.34
2023-06-12T04:41:28.813Z,101774.09
2023-06-12T04:44:00.178Z,101759.94
2023-06-12T04:46:29.887Z,101752.66
2023-06-12T04:48:57.973Z,101763.38
2023-06-12T04:51:26.051Z,101773.78
2023-06-12T04:53:56.336Z,101756.88
2023-06-12T04:56:24.275Z,101777.88
2023-06-12T04:58:53.384Z,101752.31
2023-06-12T05:01:23.171Z,101747.28
2023-06-12T05:03:51.402Z,101745.22
2023-06-12T05:06:19.206Z,101741.72
2023-06-12T05:08:46.880Z,101745.56
2023-06-12T05:11:14.964Z,101758.16
2023-06-12T05:13:42.949Z,101759.16
2023-06-12T05:16:12.057Z,101758.63
2023-06-12T05:18:39.731Z,101776.69
2023-06-12T05:21:07.921Z,101782.91
2023-06-12T05:23:35.802Z,101772.53
2023-06-12T05:26:04.147Z,101767.44
2023-06-12T05:28:31.829Z,101775.44
2023-06-12T05:30:59.612Z,101750.63
2023-06-12T05:33:28.701Z,101765.09
2023-06-12T05:35:56.375Z,101760.31
2023-06-12T05:38:24.195Z,101773.31
2023-06-12T05:40:52.252Z,101746.25
2023-06-12T05:43:20.070Z,101761.56
2023-06-12T05:45:47.692Z,101764.53
2023-06-12T05:48:15.830Z,101759.63
2023-06-12T05:50:44.878Z,101762.00
2023-06-12T05:53:12.600Z,101763.50
2023-06-12T05:55:40.364Z,101763.53
2023-06-12T05:58:08.119Z,101765.63
2023-06-12T06:00:37.086Z,101770.47
2023-06-12T06:03:05.795Z,101765.94
2023-06-12T06:05:33.621Z,101772.22
2023-06-12T06:08:02.665Z,101773.44
2023-06-12T06:10:30.841Z,101785.16
2023-06-12T06:12:58.714Z,101794.25
2023-06-12T06:15:26.477Z,101801.16
2023-06-12T06:17:54.161Z,101802.09
2023-06-12T06:20:22.120Z,101799.50
2023-06-12T06:22:49.939Z,101792.78
2023-06-12T06:25:18.964Z,101804.91
2023-06-12T06:27:46.704Z,101803.38
2023-06-12T06:30:14.977Z,101795.59
2023-06-12T06:32:43.003Z,101810.63
2023-06-12T06:35:11.107Z,101814.28
2023-06-12T06:37:39.021Z,101820.88
2023-06-12T06:40:07.856Z,101809.06
2023-06-12T06:42:37.090Z,101820.25
2023-06-12T06:45:05.261Z,101817.44
2023-06-12T06:47:33.019Z,101830.44
2023-06-12T06:50:00.718Z,101820.53
2023-06-12T06:52:28.466Z,101815.28
2023-06-12T06:54:56.297Z,101827.22
2023-06-12T06:57:24.947Z,101835.94
2023-06-12T06:59:55.674Z,101823.03
2023-06-12T07:02:24.005Z,101819.06
2023-06-12T07:04:52.327Z,101816.00
2023-06-12T07:07:20.085Z,101818.25
2023-06-12T07:09:47.796Z,101830.81
2023-06-12T07:12:15.645Z,101830.34
2023-06-12T07:14:43.317Z,101832.69
2023-06-12T07:17:12.384Z,101826.69
2023-06-12T07:19:40.060Z,101832.81
2023-06-12T07:22:07.789Z,101839.16
2023-06-12T07:24:36.174Z,101835.53
2023-06-12T07:27:04.143Z,101834.88
2023-06-12T07:29:31.787Z,101828.72
2023-06-12T07:31:59.503Z,101842.31
2023-06-12T07:34:28.537Z,101844.94
2023-06-12T07:36:57.212Z,101853.16
2023-06-12T07:39:24.892Z,101851.78
2023-06-12T07:41:52.856Z,101845.19
2023-06-12T07:44:21.212Z,101841.13
2023-06-12T07:46:49.377Z,101867.09
2023-06-12T07:49:18.063Z,101848.59
2023-06-12T07:51:47.130Z,101849.84
2023-06-12T07:54:15.058Z,101866.09
2023-06-12T07:56:43.894Z,101868.13
2023-06-12T07:59:12.462Z,101879.38
2023-06-12T08:01:40.375Z,101856.69
2023-06-12T08:04:11.228Z,101863.63
2023-06-12T08:06:39.839Z,101872.28
2023-06-12T08:09:10.654Z,101857.66
2023-06-12T08:11:38.580Z,101853.31
2023-06-12T08:14:06.246Z,101859.91
2023-06-12T08:16:34.053Z,101848.84
2023-06-12T08:19:02.820Z,101863.41
2023-06-12T08:21:30.981Z,101867.53
2023-06-12T08:23:58.842Z,101833.59
2023-06-12T08:26:28.015Z,101865.34
2023-06-12T08:28:55.972Z,101835.34
2023-06-12T08:31:24.922Z,101839.56
2023-06-12T08:33:52.811Z,101850.88
2023-06-12T08:36:20.632Z,101851.53
2023-06-12T08:38:48.294Z,101860.06
2023-06-12T08:41:19.990Z,101854.09
2023-06-12T08:43:51.065Z,101860.09
2023-06-12T08:46:20.570Z,101841.38
2023-06-12T08:48:50.540Z,101857.53
2023-06-12T08:51:19.053Z,101835.19
2023-06-12T08:53:48.498Z,101856.81
2023-06-12T08:56:16.561Z,101858.31
2023-06-12T08:58:44.238Z,101852.97
2023-06-12T09:01:15.840Z,101844.47
2023-06-12T09:03:49.067Z,101857.91
2023-06-12T09:06:20.043Z,101848.91
2023-06-12T09:08:47.887Z,101858.56
2023-06-12T09:11:15.562Z,101844.97
2023-06-12T09:13:44.067Z,101849.00
2023-06-12T09:16:14.509Z,101833.50
2023-06-12T09:18:52.973Z,101843.53
2023-06-12T09:21:23.612Z,101832.81
2023-06-12T09:23:52.262Z,101851.88
2023-06-12T09:26:23.010Z,101841.88
2023-06-12T09:28:54.185Z,101835.69
2023-06-12T09:31:23.519Z,101850.50
2023-06-12T09:33:53.592Z,101854.28
2023-06-12T09:36:22.681Z,101844.47
2023-06-12T09:38:51.564Z,101846.47
2023-06-12T09:41:23.270Z,101824.28
2023-06-12T09:43:53.421Z,101835.22
2023-06-12T09:46:27.338Z,101853.50
2023-06-12T09:48:57.156Z,101857.50
2023-06-12T09:51:25.388Z,101857.50
2023-06-12T09:53:58.004Z,101849.34
2023-06-12T09:56:26.843Z,101859.63
2023-06-12T09:58:55.997Z,101845.31
2023-06-12T10:01:27.325Z,101840.28
2023-06-12T10:04:00.713Z,101850.88
2023-06-12T10:06:29.285Z,101862.63
2023-06-12T10:08:58.593Z,101840.50
2023-06-12T10:11:27.305Z,101833.38
2023-06-12T10:13:56.163Z,101843.16
2023-06-12T10:16:27.299Z,101852.53
2023-06-12T10:18:56.942Z,101849.03
2023-06-12T10:21:25.338Z,101837.13
2023-06-12T10:23:53.839Z,101853.00
2023-06-12T10:26:23.468Z,101846.72
2023-06-12T10:28:51.359Z,101826.09
2023-06-12T10:31:20.343Z,101829.03
2023-06-12T10:34:05.202Z,101845.13
2023-06-12T10:36:41.777Z,101844.78
2023-06-12T10:39:17.179Z,101846.53
2023-06-12T10:41:58.870Z,101819.19
2023-06-12T10:44:40.256Z,101842.28
2023-06-12T10:47:19.247Z,101809.13
2023-06-12T10:50:02.782Z,101813.91
2023-06-12T10:52:30.850Z,101833.50
2023-06-12T10:55:21.323Z,101810.38
2023-06-12T10:57:50.622Z,101805.09
2023-06-12T11:00:19.409Z,101808.81
2023-06-12T11:02:48.694Z,101794.69
2023-06-12T11:05:21.375Z,101817.38
2023-06-12T11:07:54.060Z,101808.94
2023-06-12T11:10:22.039Z,101803.88
2023-06-12T11:12:53.261Z,101799.50
2023-06-12T11:15:23.240Z,101778.09
2023-06-12T11:17:51.729Z,101799.97
2023-06-12T11:24:08.683Z,101821.78
2023-06-12T11:26:37.257Z,101820.19
2023-06-12T11:29:16.564Z,101827.13
2023-06-12T11:31:51.058Z,101822.03
2023-06-12T11:34:18.863Z,101801.91
2023-06-12T11:36:46.537Z,101794.28
2023-06-12T11:41:55.577Z,101819.66
2023-06-12T11:44:25.104Z,101805.56
2023-06-12T11:46:54.352Z,101815.34
2023-06-12T11:49:22.648Z,101793.56
2023-06-12T11:51:50.769Z,101805.59
2023-06-12T11:54:18.593Z,101788.22
2023-06-12T11:59:20.086Z,101797.78
2023-06-12T12:01:49.299Z,101801.66
2023-06-12T12:04:19.589Z,101788.75
2023-06-12T12:06:50.710Z,101805.81
2023-06-12T12:09:24.885Z,101781.72
2023-06-12T12:11:53.943Z,101783.34
2023-06-12T12:14:21.736Z,101784.19
2023-06-12T12:16:49.404Z,101785.97
2023-06-12T12:19:18.287Z,101783.66
2023-06-12T12:21:47.047Z,101794.03
2023-06-12T12:24:14.976Z,101754.56
2023-06-12T12:26:43.564Z,101767.06
2023-06-12T12:29:13.012Z,101761.56
2023-06-12T12:31:41.439Z,101768.66
2023-06-12T12:34:11.233Z,101767.06
2023-06-12T12:36:39.178Z,101755.69
2023-06-12T12:39:07.181Z,101760.31
2023-06-12T12:41:34.930Z,101779.22
2023-06-12T12:44:02.578Z,101777.34
2023-06-12T12:46:32.170Z,101788.69
2023-06-12T12:49:00.097Z,101771.63
2023-06-12T12:51:27.805Z,101773.81
2023-06-12T12:53:55.528Z,101771.69
2023-06-12T12:56:23.299Z,101754.72
2023-06-12T12:58:51.851Z,101766.81
2023-06-12T13:01:19.650Z,101783.50
2023-06-12T13:03:55.903Z,101759.13
2023-06-12T13:06:24.816Z,101753.50
2023-06-12T13:08:52.511Z,101747.19
2023-06-12T13:11:20.250Z,101744.03
2023-06-12T13:13:47.883Z,101758.34
2023-06-12T13:16:15.943Z,101741.50
2023-06-12T13:18:45.654Z,101753.44
2023-06-12T13:21:15.013Z,101762.06
2023-06-12T13:23:43.127Z,101752.72
2023-06-12T13:26:10.878Z,101733.06
2023-06-12T13:28:38.622Z,101756.41
2023-06-12T13:31:06.890Z,101736.31
2023-06-12T13:33:34.604Z,101737.00
2023-06-12T13:36:04.007Z,101746.66
2023-06-12T13:38:33.117Z,101750.38
2023-06-12T13:41:00.890Z,101743.63
2023-06-12T13:43:28.917Z,101735.28
2023-06-12T13:45:58.954Z,101729.09
2023-06-12T13:48:27.399Z,101723.31
2023-06-12T13:50:55.967Z,101728.44
2023-06-12T13:53:23.687Z,101725.13
2023-06-12T13:55:54.330Z,101708.91
2023-06-12T13:58:22.104Z,101740.78
2023-06-12T14:00:49.931Z,101725.34
2023-06-12T14:03:25.864Z,101706.84
2023-06-12T14:05:53.568Z,101720.09
2023-06-12T14:08:21.338Z,101730.78
2023-06-12T14:10:50.820Z,101722.38
2023-06-12T14:13:20.273Z,101721.28
2023-06-12T14:15:48.171Z,101686.06
2023-06-12T14:18:17.236Z,101690.28
2023-06-12T14:20:44.979Z,101720.34
2023-06-12T14:23:12.810Z,101730.38
2023-06-12T14:25:40.539Z,101692.56
2023-06-12T14:28:08.254Z,101685.78
2023-06-12T14:30:37.315Z,101692.13
2023-06-12T14:33:05.196Z,101710.50
2023-06-12T14:35:33.431Z,101697.06
2023-06-12T14:38:01.133Z,101697.34
2023-06-12T14:40:28.820Z,101721.13
2023-06-12T14:42:56.487Z,101700.44
2023-06-12T14:45:24.400Z,101686.56
2023-06-12T14:47:54.174Z,101677.94
2023-06-12T14:50:22.130Z,101684.75
2023-06-12T14:52:49.891Z,101700.59
2023-06-12T14:55:18.076Z,101678.81
2023-06-12T14:57:45.926Z,101672.03
2023-06-12T15:00:14.224Z,101671.50
2023-06-12T15:02:41.974Z,101667.59
2023-06-12T15:05:11.521Z,101687.03
2023-06-12T15:07:39.441Z,101680.13
2023-06-12T15:10:07.963Z,101683.81
2023-06-12T15:12:35.657Z,101662.06
2023-06-12T15:15:03.421Z,101669.47
2023-06-12T15:17:31.107Z,101681.84
2023-06-12T15:19:58.961Z,101673.69
2023-06-12T15:22:28.066Z,101664.78
2023-06-12T15:24:55.799Z,101666.28
2023-06-12T15:27:23.462Z,101672.09
2023-06-12T15:29:51.104Z,101659.16
2023-06-12T15:32:18.949Z,101663.16
2023-06-12T15:34:46.570Z,101657.25
2023-06-12T15:37:16.950Z,101679.59
2023-06-12T15:39:48.011Z,101659.78
2023-06-12T15:42:16.407Z,101653.69
2023-06-12T15:44:44.860Z,101669.16
2023-06-12T15:47:12.779Z,101661.50
2023-06-12T15:49:40.984Z,101657.13
2023-06-12T15:52:09.612Z,101658.81
2023-06-12T15:54:37.309Z,101647.25
2023-06-12T15:57:07.801Z,101669.72
2023-06-12T15:59:35.652Z,101655.34
2023-06-12T16:02:03.514Z,101644.28
2023-06-12T16:04:31.497Z,101670.59
2023-06-12T16:06:59.214Z,101654.78
2023-06-12T16:09:26.878Z,101678.09
2023-06-12T16:11:54.565Z,101647.03
2023-06-12T16:14:23.693Z,101656.88
2023-06-12T16:16:51.655Z,101656.34
2023-06-12T16:19:19.372Z,101657.31
2023-06-12T16:21:47.835Z,101657.78
2023-06-12T16:24:15.645Z,101643.91
2023-06-12T16:26:43.426Z,101643.84
2023-06-12T16:29:11.149Z,101643.66
2023-06-12T16:31:40.215Z,101634.94
2023-06-12T16:34:07.886Z,101648.44
2023-06-12T16:36:35.961Z,101641.34
2023-06-12T16:39:04.877Z,101649.38
2023-06-12T16:41:32.730Z,101625.91
2023-06-12T16:44:00.422Z,101648.75
2023-06-12T16:46:28.212Z,101630.97
2023-06-12T16:48:57.572Z,101646.25
2023-06-12T16:51:25.546Z,101648.56
2023-06-12T16:53:53.834Z,101628.16
2023-06-12T16:56:21.631Z,101652.88
2023-06-12T16:58:49.494Z,101648.53
2023-06-12T17:01:17.355Z,101651.38
2023-06-12T17:03:45.352Z,101637.31
2023-06-12T17:06:14.660Z,101653.56
2023-06-12T17:08:42.341Z,101650.81
2023-06-12T17:11:10.987Z,101635.28
2023-06-12T17:13:39.282Z,101642.50
2023-06-12T17:16:07.501Z,101647.28
2023-06-12T17:18:35.297Z,101627.38
2023-06-12T17:21:03.075Z,101628.41
2023-06-12T17:23:32.348Z,101647.25
2023-06-12T17:26:00.122Z,101632.06
2023-06-12T17:28:27.861Z,101640.50
2023-06-12T17:30:55.522Z,101633.94
2023-06-12T17:33:23.282Z,101631.53
2023-06-12T17:35:51.122Z,101644.63
2023-06-12T17:38:18.947Z,101631.44
2023-06-12T17:40:48.141Z,101654.00
2023-06-12T17:43:15.807Z,101633.63
2023-06-12T17:45:43.616Z,101626.00
2023-06-12T17:48:11.465Z,101635.19
2023-06-12T17:50:39.263Z,101639.09
2023-06-12T17:53:07.038Z,101639.03
2023-06-12T17:55:34.919Z,101645.75
2023-06-12T17:58:04.391Z,101655.81
2023-06-12T18:00:32.237Z,101627.19
2023-06-12T18:02:59.962Z,101641.47
2023-06-12T18:05:27.699Z,101662.34
2023-06-12T18:07:55.363Z,101625.84
2023-06-12T18:10:23.191Z,101622.19
2023-06-12T18:12:50.979Z,101632.44
2023-06-12T18:15:20.022Z,101631.69
2023-06-12T18:17:49.012Z,101646.19
2023-06-12T18:20:16.859Z,101625.25
2023-06-12T18:22:44.595Z,101617.00
2023-06-12T18:25:13.797Z,101642.59
2023-06-12T18:27:42.359Z,101608.25
2023-06-12T18:30:10.569Z,101636.34
2023-06-12T18:32:39.622Z,101644.75
2023-06-12T18:35:09.297Z,101643.41
2023-06-12T18:37:37.297Z,101628.84
2023-06-12T18:40:05.823Z,101652.13
2023-06-12T18:42:33.500Z,101655.84
2023-06-12T18:45:01.328Z,101669.19
2023-06-12T18:47:29.015Z,101662.03
2023-06-12T18:49:58.122Z,101667.03
2023-06-12T18:52:25.802Z,101653.44
2023-06-12T18:54:53.863Z,101664.75
2023-06-12T18:57:21.632Z,101683.09
2023-06-12T18:59:49.294Z,101692.31
2023-06-12T19:02:17.225Z,101664.00
2023-06-12T19:04:44.878Z,101691.47
2023-06-12T19:07:18.691Z,101699.19
2023-06-12T19:09:46.402Z,101692.59
2023-06-12T19:12:14.084Z,101673.06
2023-06-12T19:14:41.774Z,101696.66
2023-06-12T19:17:09.605Z,101700.53
2023-06-12T19:19:38.638Z,101700.31
2023-06-12T19:22:06.596Z,101678.38
2023-06-12T19:24:36.543Z,101715.81
2023-06-12T19:27:04.587Z,101695.28
2023-06-12T19:29:32.256Z,101715.69
2023-06-12T19:32:00.025Z,101703.88
2023-06-12T19:34:28.711Z,101708.28
2023-06-12T19:36:56.459Z,101726.47
2023-06-12T19:39:25.008Z,101707.81
2023-06-12T19:41:54.019Z,101733.84
2023-06-12T19:44:21.689Z,101731.88
2023-06-12T19:46:49.472Z,101728.63
2023-06-12T19:49:17.170Z,101714.84
2023-06-12T19:51:45.190Z,101715.72
2023-06-12T19:54:13.024Z,101730.09
2023-06-12T19:56:40.697Z,101710.78
2023-06-12T19:59:09.832Z,101718.75
2023-06-12T20:01:37.542Z,101728.22
2023-06-12T20:04:05.931Z,101718.66
2023-06-12T20:06:33.562Z,101713.00
2023-06-12T20:09:01.263Z,101735.00
2023-06-12T20:11:28.936Z,101732.41
2023-06-12T20:13:59.080Z,101723.97
2023-06-12T20:16:30.562Z,101749.53
2023-06-12T20:19:03.291Z,101736.44
2023-06-12T20:21:31.016Z,101736.06
2023-06-12T20:23:58.846Z,101717.44
2023-06-12T20:26:27.352Z,101725.56
2023-06-12T20:28:55.113Z,101725.75
2023-06-12T20:31:23.552Z,101736.34
2023-06-12T20:33:52.696Z,101748.31
2023-06-12T20:36:20.718Z,101725.09
2023-06-12T20:38:48.426Z,101726.97
2023-06-12T20:41:16.110Z,101742.09
2023-06-12T20:43:43.750Z,101756.28
2023-06-12T20:46:11.686Z,101712.91
2023-06-12T20:48:39.431Z,101755.72
2023-06-12T20:51:08.733Z,101755.94
2023-06-12T20:53:36.742Z,101745.53
2023-06-12T20:56:04.472Z,101726.53
2023-06-12T20:58:32.193Z,101744.53
2023-06-12T21:00:59.916Z,101746.06
2023-06-12T21:03:30.419Z,101742.28
2023-06-12T21:05:58.151Z,101741.56
2023-06-12T21:08:27.149Z,101733.81
2023-06-12T21:10:54.818Z,101733.31
2023-06-12T21:13:22.609Z,101742.66
2023-06-12T21:15:50.297Z,101754.66
2023-06-12T21:18:17.957Z,101747.44
2023-06-12T21:20:48.338Z,101743.22
2023-06-12T21:23:16.144Z,101755.03
2023-06-12T21:25:45.274Z,101750.50
2023-06-12T21:28:12.960Z,101746.25
2023-06-12T21:30:41.117Z,101762.44
2023-06-12T21:33:08.798Z,101752.47
2023-06-12T21:35:36.472Z,101751.59
2023-06-12T21:38:04.166Z,101746.06
2023-06-12T21:40:31.822Z,101758.25
2023-06-12T21:43:00.849Z,101773.16
2023-06-12T21:45:31.342Z,101745.22
2023-06-12T21:47:59.292Z,101740.38
2023-06-12T21:50:27.074Z,101750.84
2023-06-12T21:52:55.375Z,101754.00
2023-06-12T21:55:23.041Z,101764.38
2023-06-12T21:57:50.724Z,101755.78
2023-06-12T22:00:20.026Z,101735.50
2023-06-12T22:02:47.740Z,101740.16
2023-06-12T22:05:15.914Z,101754.25
2023-06-12T22:07:43.915Z,101741.88
2023-06-12T22:10:12.115Z,101752.50
2023-06-12T22:12:40.072Z,101727.91
2023-06-12T22:15:08.775Z,101745.50
2023-06-12T22:17:37.834Z,101729.63
2023-06-12T22:20:06.931Z,101763.97
2023-06-12T22:22:34.631Z,101766.28
2023-06-12T22:25:02.361Z,101758.75
2023-06-12T22:27:30.247Z,101769.84
2023-06-12T22:29:57.928Z,101760.44
2023-06-12T22:32:25.596Z,101762.03
2023-06-12T22:34:54.584Z,101676.47
2023-06-12T22:37:22.229Z,101744.28
2023-06-12T22:39:49.935Z,101746.97
2023-06-12T22:42:17.652Z,101765.88
2023-06-12T22:44:45.325Z,101749.22
2023-06-12T22:47:13.992Z,101741.53
2023-06-12T22:49:41.691Z,101731.22
2023-06-12T22:52:11.632Z,101757.00
2023-06-12T22:54:39.980Z,101752.81
2023-06-12T22:57:08.797Z,101751.03
2023-06-12T22:59:36.766Z,101762.66
2023-06-12T23:02:05.515Z,101770.50
2023-06-12T23:04:36.254Z,101757.84
2023-06-12T23:07:06.708Z,101747.72
2023-06-12T23:09:35.930Z,101752.81
2023-06-12T23:12:03.849Z,101743.59
2023-06-12T23:14:31.486Z,101741.84
2023-06-12T23:16:59.722Z,101761.66
2023-06-12T23:19:32.568Z,101750.53
2023-06-12T23:22:01.346Z,101743.41
2023-06-12T23:24:29.128Z,101772.06
2023-06-12T23:26:58.248Z,101757.69
2023-06-12T23:29:26.246Z,101759.97
2023-06-12T23:31:53.915Z,101760.16
2023-06-12T23:34:21.675Z,101768.34
2023-06-12T23:36:49.901Z,101751.59
2023-06-12T23:39:17.755Z,101752.91
2023-06-12T23:41:45.475Z,101769.25
2023-06-12T23:44:14.499Z,101739.03
2023-06-12T23:46:42.455Z,101748.53
2023-06-12T23:49:10.120Z,101766.25
2023-06-12T23:51:37.966Z,101750.66
2023-06-12T23:54:05.912Z,101736.16
2023-06-12T23:56:33.580Z,101738.97
2023-06-12T23:59:01.285Z,101744.34
